Time;durP1;ratioP1;P1;durP2;ratioP2;P2;SDS_P1;SDS_P2;PMS_P1;PMS_P2;Temp;Humidity;BMP_temperature;BMP_pressure;BME280_temperature;BME280_humidity;BME280_pressure;Samples;Min_cycle;Max_cycle;Signal;HPM_P1;HPM_P2
2023/01/22 00:00:07;;;;;;;35.47;17.42;;;;;;;-5.96;100.00;102328.53;4912079;29;20029;-95
2023/01/22 00:02:37;;;;;;;41.70;19.40;;;;;;;-5.77;100.00;102346.03;4912916;29;20507;-96
2023/01/22 00:05:07;;;;;;;42.75;19.08;;;;;;;-5.88;100.00;102337.19;4902154;29;20556;-96
2023/01/22 00:07:40;;;;;;;44.15;19.70;;;;;;;-6.14;100.00;102316.94;4903350;29;20029;-96
2023/01/22 00:10:14;;;;;;;33.50;17.52;;;;;;;-6.17;100.00;102321.81;4905285;29;20061;-96
2023/01/22 00:12:39;;;;;;;35.13;16.77;;;;;;;-6.10;100.00;102316.25;4920431;29;20028;-95
2023/01/22 00:15:09;;;;;;;41.70;18.15;;;;;;;-5.99;100.00;102324.25;4919332;29;20127;-94
2023/01/22 00:17:34;;;;;;;38.80;18.23;;;;;;;-6.00;100.00;102339.25;4889454;29;20517;-96
2023/01/22 00:20:01;;;;;;;38.10;17.80;;;;;;;-6.28;100.00;102303.78;4907608;29;20028;-96
2023/01/22 00:22:27;;;;;;;35.00;16.67;;;;;;;-6.14;100.00;102334.53;4907031;29;20033;-95
2023/01/22 00:24:52;;;;;;;41.55;18.73;;;;;;;-6.18;100.00;102336.84;4908450;29;20114;-95
2023/01/22 00:27:24;;;;;;;34.40;17.30;;;;;;;-6.17;100.00;102344.44;4905062;29;20025;-94
2023/01/22 00:29:56;;;;;;;39.42;18.08;;;;;;;-6.28;100.00;102330.56;4905811;29;20033;-96
2023/01/22 00:32:25;;;;;;;40.45;16.88;;;;;;;-6.19;100.00;102346.03;4922973;29;20032;-96
2023/01/22 00:34:51;;;;;;;38.78;17.02;;;;;;;-6.49;100.00;102281.13;4925480;29;20033;-96
2023/01/22 00:37:22;;;;;;;36.58;16.88;;;;;;;-6.35;100.00;102288.41;4891383;29;20040;-96
2023/01/22 00:39:52;;;;;;;38.42;15.38;;;;;;;-6.44;100.00;102303.09;4906552;29;20033;-96
2023/01/22 00:42:21;;;;;;;41.42;18.23;;;;;;;-6.56;100.00;102289.22;4892523;29;20041;-96
2023/01/22 00:44:52;;;;;;;36.83;17.58;;;;;;;-6.20;100.00;102339.28;4908174;29;20085;-96
2023/01/22 00:47:21;;;;;;;33.58;16.50;;;;;;;-6.33;100.00;102302.75;4893108;29;20040;-96
2023/01/22 00:49:58;;;;;;;36.83;16.92;;;;;;;-6.41;100.00;102288.13;4891540;29;20037;-95
2023/01/22 00:52:38;;;;;;;34.35;15.73;;;;;;;-6.37;100.00;102284.97;4885649;29;20041;-96
2023/01/22 00:55:35;;;;;;;45.50;17.90;;;;;;;-6.50;100.00;102278.56;4895184;29;20036;-96
2023/01/22 00:58:26;;;;;;;35.75;17.13;;;;;;;-6.47;100.00;102284.56;4924214;29;20029;-96
2023/01/22 01:01:10;;;;;;;40.78;17.55;;;;;;;-6.43;100.00;102284.72;4909815;29;20044;-96
2023/01/22 01:03:49;;;;;;;38.80;16.98;;;;;;;-6.21;100.00;102312.44;4896429;29;20048;-96
2023/01/22 01:07:07;;;;;;;;;;;;;;;;;;;;;
2023/01/22 01:09:57;;;;;;;39.35;16.27;;;;;;;-6.44;100.00;102273.78;4898825;29;20120;-96
2023/01/22 01:12:46;;;;;;;32.92;16.40;;;;;;;-6.63;100.00;102266.28;4910625;29;20121;-94
2023/01/22 01:15:23;;;;;;;31.40;16.40;;;;;;;-6.56;100.00;102274.16;4895687;29;20037;-96
2023/01/22 01:18:13;;;;;;;;;;;;;;;;;;;;;
2023/01/22 01:20:58;;;;;;;40.85;17.33;;;;;;;-6.52;100.00;102268.44;4889594;29;20124;-96
2023/01/22 01:23:57;;;;;;;35.95;16.52;;;;;;;-6.51;100.00;102267.69;4902004;29;20552;-96
2023/01/22 01:26:47;;;;;;;;;;;;;;;;;;;;;
2023/01/22 01:29:31;;;;;;;30.75;15.20;;;;;;;-6.19;100.00;102313.38;4890708;29;20092;-96
2023/01/22 01:32:43;;;;;;;;;;;;;;;;;;;;;
2023/01/22 01:35:56;;;;;;;;;;;;;;;;;;;;;
2023/01/22 01:42:30;;;;;;;;;;;;;;;;;;;;;
2023/01/22 01:52:55;;;;;;;;;;;;;;;-5.28;100.00;102342.09;4786657;30;20047;-96
2023/01/22 09:34:21;;;;;;;36.75;16.33;;;;;;;-0.24;100.00;102377.38;4904237;29;20144;-96
2023/01/22 09:36:50;;;;;;;34.35;16.83;;;;;;;-0.32;100.00;102364.53;4901489;29;20040;-96
2023/01/22 09:39:16;;;;;;;34.83;17.50;;;;;;;-0.31;100.00;102362.88;4908061;29;20025;-94
2023/01/22 09:41:56;;;;;;;35.13;17.45;;;;;;;-0.24;100.00;102373.16;4900601;29;20088;-96
2023/01/22 09:44:23;;;;;;;37.42;17.20;;;;;;;-0.09;100.00;102395.44;4901126;29;20033;-96
2023/01/22 09:46:51;;;;;;;35.75;17.05;;;;;;;0.14;100.00;102392.44;4900205;29;20029;-96
2023/01/22 09:49:24;;;;;;;40.58;18.52;;;;;;;0.10;100.00;102353.44;4900311;29;20080;-95
2023/01/22 09:51:54;;;;;;;39.00;18.85;;;;;;;0.38;100.00;102364.88;4900179;29;20035;-96
2023/01/22 09:54:21;;;;;;;41.03;19.15;;;;;;;0.61;100.00;102365.25;4900967;29;20036;-96
2023/01/22 09:56:49;;;;;;;38.15;20.42;;;;;;;0.81;100.00;102375.69;4901757;29;20656;-96
2023/01/22 09:59:22;;;;;;;35.45;19.20;;;;;;;0.66;100.00;102362.78;4901356;29;20032;-96
2023/01/22 10:02:02;;;;;;;38.85;20.88;;;;;;;0.80;100.00;102370.59;4901615;29;20032;-96
2023/01/22 10:04:48;;;;;;;37.92;18.73;;;;;;;0.84;100.00;102355.41;4901402;29;20127;-95
2023/01/22 10:07:31;;;;;;;35.78;18.73;;;;;;;0.65;100.00;102348.34;4900568;29;20037;-96
2023/01/22 10:10:17;;;;;;;32.38;17.45;;;;;;;0.59;100.00;102340.66;4902431;29;20455;-96
2023/01/22 10:13:06;;;;;;;33.90;16.33;;;;;;;0.58;100.00;102347.41;4902776;29;20096;-96
2023/01/22 10:15:43;;;;;;;29.75;17.70;;;;;;;0.59;100.00;102345.75;4902405;29;20033;-96
2023/01/22 10:19:00;;;;;;;29.33;17.45;;;;;;;0.90;100.00;102376.66;4900651;29;20028;-96
2023/01/22 10:21:34;;;;;;;30.88;16.42;;;;;;;1.03;100.00;102374.31;4846061;29;20188;-96
2023/01/22 10:24:08;;;;;;;30.65;16.98;;;;;;;0.85;100.00;102351.16;4900714;29;20127;-96
2023/01/22 10:26:44;;;;;;;25.83;15.35;;;;;;;1.01;100.00;102348.00;4903167;29;20414;-95
2023/01/22 10:29:32;;;;;;;28.73;16.02;;;;;;;1.44;100.00;102380.72;4900210;29;20044;-96
2023/01/22 10:32:20;;;;;;;28.35;16.67;;;;;;;1.32;100.00;102353.47;4901913;29;20048;-96
2023/01/22 10:35:02;;;;;;;27.67;16.33;;;;;;;1.70;100.00;102381.88;4901287;29;20024;-96
2023/01/22 10:37:28;;;;;;;;;;;;;;;1.81;100.00;102388.78;4902946;29;20029;-96
2023/01/22 10:39:59;;;;;;;24.13;14.07;;;;;;;1.83;100.00;102356.53;4901511;29;19922;-95
2023/01/22 10:42:27;;;;;;;28.70;14.85;;;;;;;2.05;100.00;102358.47;4900921;29;20420;-96
2023/01/22 10:45:08;;;;;;;27.70;14.90;;;;;;;1.97;100.00;102379.59;4900535;29;20033;-96
2023/01/22 10:47:34;;;;;;;27.02;15.00;;;;;;;2.00;100.00;102400.88;4901018;29;20036;-96
2023/01/22 10:50:12;;;;;;;28.40;16.02;;;;;;;1.93;100.00;102373.63;4899837;29;20029;-96
2023/01/22 10:52:50;;;;;;;25.45;15.35;;;;;;;2.06;100.00;102380.53;4899943;29;20032;-94
2023/01/22 10:55:31;;;;;;;20.40;12.77;;;;;;;2.37;100.00;102396.09;4915219;29;20028;-96
2023/01/22 10:58:04;;;;;;;27.27;14.35;;;;;;;2.61;100.00;102404.75;4899152;29;20043;-95
2023/01/22 11:00:35;;;;;;;21.15;11.95;;;;;;;2.53;98.05;102387.69;4899039;29;20021;-94
2023/01/22 11:03:12;;;;;;;23.38;12.48;;;;;;;2.67;100.00;102395.44;4898970;29;20104;-96
2023/01/22 11:05:42;;;;;;;18.85;11.10;;;;;;;2.71;93.04;102391.25;4898614;29;20033;-95
2023/01/22 11:08:15;;;;;;;17.45;10.35;;;;;;;2.59;97.19;102380.97;4899237;29;20118;-95
2023/01/22 11:10:50;;;;;;;17.92;10.43;;;;;;;2.87;93.12;102408.31;4899782;29;20059;-96
2023/01/22 11:13:24;;;;;;;19.65;10.93;;;;;;;2.84;95.39;102417.66;4898854;29;20123;-95
2023/01/22 11:16:08;;;;;;;26.13;15.18;;;;;;;2.59;94.76;102396.25;4899556;29;20037;-95
2023/01/22 11:18:44;;;;;;;21.33;11.93;;;;;;;2.97;93.89;102422.84;4898089;29;20031;-95
2023/01/22 11:21:25;;;;;;;24.17;13.00;;;;;;;3.08;93.27;102416.97;4898479;29;20024;-96
2023/01/22 11:23:59;;;;;;;44.13;22.17;;;;;;;3.06;93.66;102400.78;4897987;29;20127;-95
2023/01/22 11:26:42;;;;;;;19.10;12.65;;;;;;;3.43;88.72;102434.97;4897870;29;20024;-96
2023/01/22 11:29:32;;;;;;;21.13;12.52;;;;;;;3.76;88.65;102433.41;4897949;29;20032;-96
2023/01/22 11:32:00;;;;;;;17.10;10.75;;;;;;;3.88;87.11;102432.56;4897795;29;20033;-96
2023/01/22 11:34:43;;;;;;;16.83;10.48;;;;;;;3.79;85.73;102400.22;4897863;29;20033;-95
2023/01/22 11:37:31;;;;;;;17.33;10.98;;;;;;;4.32;89.66;102442.00;4913119;29;20024;-96
2023/01/22 11:40:27;;;;;;;17.77;9.55;;;;;;;4.44;85.76;102413.94;4885546;29;20095;-95
2023/01/22 11:43:27;;;;;;;15.98;9.63;;;;;;;4.94;81.58;102451.38;4897109;29;20039;-96
2023/01/22 11:46:33;;;;;;;14.35;9.38;;;;;;;5.12;78.76;102455.59;4897533;29;20029;-95
2023/01/22 11:49:08;;;;;;;16.77;9.13;;;;;;;5.28;79.68;102426.53;4896598;29;20067;-95
2023/01/22 11:51:48;;;;;;;15.52;10.07;;;;;;;5.87;78.98;102431.41;4912871;29;20029;-95
2023/01/22 11:54:43;;;;;;;21.98;12.73;;;;;;;5.96;76.06;102419.41;4896706;29;20029;-95
2023/01/22 11:57:18;;;;;;;19.17;10.05;;;;;;;6.31;72.28;102453.34;4912391;29;20036;-94
2023/01/22 11:59:56;;;;;;;16.30;8.82;;;;;;;6.55;69.21;102457.47;4896864;29;20028;-95
2023/01/22 12:02:40;;;;;;;11.60;7.63;;;;;;;6.38;68.03;102437.91;4896708;29;20037;-95
2023/01/22 12:05:27;;;;;;;12.18;8.02;;;;;;;6.62;67.89;102428.31;4896793;29;20028;-95
2023/01/22 12:08:05;;;;;;;15.48;7.95;;;;;;;6.83;69.78;102417.00;4896711;29;20480;-95
2023/01/22 12:10:33;;;;;;;13.77;8.02;;;;;;;6.77;67.58;102422.19;4896730;29;20372;-95
2023/01/22 12:13:25;;;;;;;15.52;8.10;;;;;;;7.14;66.57;102407.25;4896918;29;20155;-95
2023/01/22 12:16:14;;;;;;;15.10;7.57;;;;;;;7.09;64.67;102375.63;4896624;29;20112;-95
2023/01/22 12:19:07;;;;;;;12.75;8.23;;;;;;;6.99;66.06;102407.41;4896600;29;20040;-95
2023/01/22 12:21:38;;;;;;;11.95;8.07;;;;;;;7.27;65.51;102395.13;4896773;29;20056;-94
2023/01/22 12:24:22;;;;;;;11.70;7.85;;;;;;;7.00;64.12;102386.88;4896645;29;20080;-94
2023/01/22 12:27:00;;;;;;;12.52;7.45;;;;;;;6.56;64.99;102346.25;4896749;29;20080;-96
2023/01/22 12:29:38;;;;;;;19.15;8.55;;;;;;;6.29;67.63;102358.50;4896487;29;20400;-95
2023/01/22 12:32:07;;;;;;;12.60;8.00;;;;;;;6.04;70.09;102364.69;4896608;29;20031;-95
2023/01/22 12:35:02;;;;;;;14.48;7.47;;;;;;;6.08;67.40;102348.44;4896649;29;20315;-95
2023/01/22 12:37:42;;;;;;;11.77;7.50;;;;;;;5.99;67.16;102360.44;4890099;29;20040;-95
2023/01/22 12:40:31;;;;;;;13.82;7.72;;;;;;;6.46;69.17;102354.91;4896458;29;20036;-94
2023/01/22 12:43:06;;;;;;;13.90;8.18;;;;;;;7.81;62.04;102351.56;4896308;29;20032;-95
2023/01/22 12:45:54;;;;;;;12.43;8.15;;;;;;;7.68;61.68;102347.44;4896830;29;20104;-96
2023/01/22 12:48:41;;;;;;;12.93;7.28;;;;;;;7.81;61.54;102343.84;4896602;29;20021;-95
2023/01/22 12:51:35;;;;;;;12.45;7.40;;;;;;;8.23;60.96;102345.75;4896451;29;20300;-95
2023/01/22 12:54:22;;;;;;;11.35;7.05;;;;;;;9.64;56.07;102359.28;4896524;29;20033;-94
2023/01/22 12:56:56;;;;;;;10.80;7.13;;;;;;;9.94;53.86;102331.06;4896846;29;20029;-95
2023/01/22 12:59:50;;;;;;;14.18;6.85;;;;;;;9.22;54.25;102317.25;4896808;29;20028;-95
2023/01/22 13:02:37;;;;;;;12.63;7.45;;;;;;;9.28;55.67;102334.31;4896619;29;20120;-95
2023/01/22 13:05:21;;;;;;;9.98;6.82;;;;;;;7.93;59.15;102307.66;4896694;29;20035;-95
2023/01/22 13:07:50;;;;;;;12.32;7.00;;;;;;;8.23;58.12;102338.03;4896160;29;20036;-95
2023/01/22 13:10:19;;;;;;;13.43;7.90;;;;;;;8.05;58.83;102332.31;4896497;29;20044;-95
2023/01/22 13:12:48;;;;;;;10.23;7.22;;;;;;;7.51;61.68;102324.59;4899640;29;20504;-95
2023/01/22 13:15:23;;;;;;;9.23;7.13;;;;;;;6.46;63.61;102316.44;4899541;29;20032;-94
2023/01/22 13:18:00;;;;;;;14.73;8.32;;;;;;;6.17;64.42;102330.41;4915214;29;20024;-95
2023/01/22 13:20:26;;;;;;;11.73;7.57;;;;;;;6.00;65.23;102331.41;4900488;29;20029;-95
2023/01/22 13:22:57;;;;;;;13.32;7.90;;;;;;;5.98;64.78;102335.69;4899537;29;20443;-95
2023/01/22 13:25:29;;;;;;;15.98;7.88;;;;;;;5.59;66.51;102306.03;4899400;29;20032;-95
2023/01/22 13:27:56;;;;;;;12.85;7.32;;;;;;;5.84;67.09;102322.09;4915006;29;20029;-96
2023/01/22 13:30:29;;;;;;;12.07;7.97;;;;;;;5.62;66.87;102313.69;4899266;29;20033;-95
2023/01/22 13:33:15;;;;;;;12.05;7.28;;;;;;;5.62;67.26;102312.84;4899390;29;20562;-96
2023/01/22 13:35:45;;;;;;;13.05;8.38;;;;;;;5.66;67.44;102319.66;4899298;29;20032;-95
2023/01/22 13:38:24;;;;;;;19.58;8.52;;;;;;;5.67;68.13;102299.16;4899211;29;20036;-95
2023/01/22 13:40:59;;;;;;;12.52;7.70;;;;;;;5.91;66.44;102305.78;4899590;29;20116;-95
2023/01/22 13:43:25;;;;;;;17.17;8.73;;;;;;;5.81;66.80;102283.69;4899451;29;20471;-94
2023/01/22 13:45:53;;;;;;;12.85;8.23;;;;;;;5.58;67.49;102296.63;4899346;29;20176;-94
2023/01/22 13:48:22;;;;;;;12.90;8.10;;;;;;;5.76;67.04;102316.19;4899152;29;20091;-96
2023/01/22 13:50:58;;;;;;;16.05;8.02;;;;;;;5.51;67.25;102295.84;4899302;29;20499;-95
2023/01/22 13:53:30;;;;;;;13.43;8.05;;;;;;;5.64;67.86;102311.13;4899112;29;20103;-96
2023/01/22 13:55:57;;;;;;;14.02;8.35;;;;;;;5.45;68.01;102301.00;4899219;29;20476;-95
2023/01/22 13:58:41;;;;;;;11.75;7.88;;;;;;;5.23;68.68;102337.81;4898961;29;20027;-96
2023/01/22 14:01:08;;;;;;;19.90;8.68;;;;;;;5.35;68.66;102299.34;4898762;29;20083;-95
2023/01/22 14:03:34;;;;;;;13.73;6.93;;;;;;;5.29;69.18;102314.75;4898890;29;20036;-94
2023/01/22 14:06:12;;;;;;;14.00;8.93;;;;;;;5.41;69.02;102309.56;4898652;29;20033;-95
2023/01/22 14:08:49;;;;;;;14.27;8.52;;;;;;;5.32;69.04;102330.09;4898791;29;20033;-95
2023/01/22 14:11:15;;;;;;;15.70;7.43;;;;;;;5.32;68.44;102328.41;4898577;29;20036;-95
2023/01/22 14:13:42;;;;;;;17.27;8.02;;;;;;;4.87;69.87;102306.41;4898599;29;20033;-95
2023/01/22 14:16:08;;;;;;;15.68;7.82;;;;;;;4.70;71.27;102326.91;4898628;29;20487;-96
2023/01/22 14:18:34;;;;;;;12.68;8.02;;;;;;;4.85;71.04;102354.16;4898794;29;20032;-95
2023/01/22 14:21:00;;;;;;;12.10;7.45;;;;;;;4.51;71.98;102338.88;4898391;29;20029;-93
2023/01/22 14:23:25;;;;;;;13.68;7.43;;;;;;;4.56;73.49;102314.19;4898142;29;20388;-94
2023/01/22 14:25:53;;;;;;;14.45;8.18;;;;;;;4.56;73.31;102326.09;4898610;29;20029;-94
2023/01/22 14:28:20;;;;;;;13.25;8.15;;;;;;;4.28;74.78;102305.69;4898421;29;20044;-95
2023/01/22 14:30:47;;;;;;;13.52;8.30;;;;;;;4.49;74.09;102309.94;4898317;29;20368;-95
2023/01/22 14:33:22;;;;;;;13.80;8.27;;;;;;;4.47;73.20;102321.88;4898588;29;20021;-95
2023/01/22 14:35:48;;;;;;;13.93;8.68;;;;;;;4.40;74.23;102317.63;4898519;29;20120;-92
2023/01/22 14:38:13;;;;;;;12.80;7.75;;;;;;;4.10;74.88;102311.69;4898133;29;20128;-96
2023/01/22 14:40:40;;;;;;;11.60;8.38;;;;;;;4.14;75.02;102323.59;4898036;29;20052;-95
2023/01/22 14:43:05;;;;;;;13.18;9.07;;;;;;;4.16;75.05;102311.66;4898208;29;20040;-95
2023/01/22 14:45:31;;;;;;;13.57;9.20;;;;;;;4.10;74.67;102291.25;4898240;29;20408;-96
2023/01/22 14:47:57;;;;;;;16.60;9.68;;;;;;;4.16;75.81;102293.78;4897967;29;20291;-95
2023/01/22 14:50:23;;;;;;;18.20;9.20;;;;;;;4.33;76.13;102309.09;4898464;29;20468;-94
2023/01/22 14:52:52;;;;;;;16.90;8.25;;;;;;;4.32;75.38;102327.84;4898332;29;20056;-95
2023/01/22 14:55:18;;;;;;;16.25;9.18;;;;;;;4.15;76.04;102307.44;4897941;29;20039;-95
2023/01/22 14:57:44;;;;;;;15.20;8.15;;;;;;;4.16;75.69;102286.13;4898201;29;20040;-95
2023/01/22 15:00:13;;;;;;;15.38;8.77;;;;;;;4.00;77.40;102322.75;4897763;29;20020;-96
2023/01/22 15:02:40;;;;;;;14.68;9.52;;;;;;;4.11;76.98;102312.53;4897505;29;20035;-96
2023/01/22 15:05:07;;;;;;;14.10;8.70;;;;;;;4.27;76.59;102309.97;4897832;29;20091;-95
2023/01/22 15:07:33;;;;;;;11.70;7.95;;;;;;;4.14;76.58;102292.94;4897763;29;20391;-96
2023/01/22 15:10:03;;;;;;;15.40;9.10;;;;;;;4.37;75.74;102307.41;4898326;29;20028;-96
2023/01/22 15:12:29;;;;;;;15.23;8.70;;;;;;;4.14;77.37;102303.16;4897759;29;20119;-94
2023/01/22 15:14:54;;;;;;;19.63;9.20;;;;;;;3.99;77.46;102283.56;4897647;29;20494;-95
2023/01/22 15:17:20;;;;;;;13.07;8.52;;;;;;;4.02;77.46;102298.03;4897556;29;20144;-95
2023/01/22 15:19:46;;;;;;;13.93;9.93;;;;;;;4.05;77.96;102298.06;4897407;29;20397;-95
2023/01/22 15:22:13;;;;;;;13.65;8.68;;;;;;;3.78;78.61;102276.78;4897131;29;20032;-95
2023/01/22 15:24:38;;;;;;;14.35;9.02;;;;;;;3.86;78.64;102298.06;4897153;29;20391;-96
2023/01/22 15:27:04;;;;;;;13.95;8.70;;;;;;;3.97;79.05;102322.75;4897482;29;20116;-96
2023/01/22 15:29:30;;;;;;;16.95;9.45;;;;;;;3.69;80.75;102304.00;4897418;29;20488;-94
2023/01/22 15:31:56;;;;;;;15.10;9.05;;;;;;;3.75;80.77;102304.84;4897267;29;20033;-96
2023/01/22 15:34:22;;;;;;;14.95;9.20;;;;;;;3.63;81.59;102331.25;4896990;29;20024;-96
2023/01/22 15:36:48;;;;;;;16.75;9.85;;;;;;;3.61;81.90;102311.66;4897132;29;20032;-94
2023/01/22 15:39:15;;;;;;;14.68;9.20;;;;;;;3.68;81.81;102323.56;4897346;29;20392;-96
2023/01/22 15:41:40;;;;;;;15.13;9.38;;;;;;;3.54;81.43;102294.63;4897369;29;20025;-95
2023/01/22 15:44:06;;;;;;;14.45;9.65;;;;;;;3.48;82.82;102325.25;4896742;29;20036;-95
2023/01/22 15:46:36;;;;;;;15.18;9.98;;;;;;;3.37;84.07;102313.31;4897027;29;20028;-94
2023/01/22 15:49:04;;;;;;;18.20;10.90;;;;;;;3.36;84.29;102318.41;4896854;29;20131;-96
2023/01/22 15:51:30;;;;;;;17.48;10.23;;;;;;;3.53;83.97;102343.97;4896934;29;20024;-96
2023/01/22 15:53:58;;;;;;;19.90;9.45;;;;;;;3.24;84.99;102316.66;4896959;29;20459;-95
2023/01/22 15:56:26;;;;;;;16.42;10.07;;;;;;;3.21;85.28;102317.50;4897067;29;20040;-95
2023/01/22 15:58:52;;;;;;;18.83;10.00;;;;;;;2.90;86.25;102305.47;4896749;29;20032;-95
2023/01/22 16:01:18;;;;;;;18.80;10.05;;;;;;;2.80;88.76;102340.28;4896760;29;20072;-95
2023/01/22 16:03:44;;;;;;;19.85;10.57;;;;;;;2.57;89.73;102323.16;4896853;29;20082;-95
2023/01/22 16:06:11;;;;;;;14.70;9.07;;;;;;;2.42;89.77;102306.94;4897261;29;20024;-95
2023/01/22 16:08:38;;;;;;;14.35;9.90;;;;;;;2.45;89.65;102323.09;4897078;29;20033;-95
2023/01/22 16:11:04;;;;;;;12.38;8.20;;;;;;;2.38;90.70;102325.59;4897060;29;20025;-96
2023/01/22 16:13:29;;;;;;;12.85;8.95;;;;;;;2.26;91.71;102317.00;4897060;29;20027;-95
2023/01/22 16:16:00;;;;;;;18.98;11.65;;;;;;;2.46;92.71;102345.16;4896688;29;20033;-95
2023/01/22 16:18:26;;;;;;;20.00;11.73;;;;;;;2.21;94.18;102312.72;4896639;29;20035;-95
2023/01/22 16:20:52;;;;;;;20.63;13.23;;;;;;;2.29;95.63;102336.56;4896774;29;20559;-95
2023/01/22 16:23:18;;;;;;;19.90;13.77;;;;;;;1.94;97.16;102311.66;4896951;29;20039;-95
2023/01/22 16:25:44;;;;;;;24.15;13.85;;;;;;;1.91;97.13;102309.94;4896537;29;20033;-96
2023/01/22 16:28:10;;;;;;;25.45;15.82;;;;;;;1.95;98.27;102328.63;4896453;29;20479;-96
2023/01/22 16:30:35;;;;;;;25.30;15.10;;;;;;;1.94;98.58;102334.59;4896609;29;20037;-95
2023/01/22 16:33:16;;;;;;;26.50;15.43;;;;;;;1.80;98.44;102310.69;4896530;29;20036;-96
2023/01/22 16:35:42;;;;;;;23.85;14.43;;;;;;;1.75;99.23;102314.88;4896515;29;20036;-95
2023/01/22 16:38:07;;;;;;;22.25;14.30;;;;;;;1.85;99.48;102352.31;4896440;29;20036;-95
2023/01/22 16:40:33;;;;;;;24.70;14.02;;;;;;;1.69;100.00;102331.81;4896781;29;20103;-95
2023/01/22 16:43:00;;;;;;;21.02;13.85;;;;;;;1.48;100.00;102324.78;4896557;29;20028;-94
2023/01/22 16:45:26;;;;;;;23.30;13.43;;;;;;;1.28;100.00;102316.97;4896675;29;20032;-95
2023/01/22 16:47:51;;;;;;;24.45;13.85;;;;;;;1.12;100.00;102320.16;4899486;29;20028;-96
2023/01/22 16:50:17;;;;;;;25.42;14.52;;;;;;;1.01;100.00;102316.63;4900092;29;20029;-95
2023/01/22 16:52:42;;;;;;;28.02;16.63;;;;;;;0.91;100.00;102325.00;4900320;29;20017;-95
2023/01/22 16:55:10;;;;;;;30.65;17.55;;;;;;;0.69;100.00;102308.59;4899831;29;20502;-96
2023/01/22 16:57:35;;;;;;;28.58;17.20;;;;;;;0.45;100.00;102292.19;4899681;29;20566;-95
2023/01/22 17:00:01;;;;;;;27.50;16.92;;;;;;;0.40;100.00;102317.50;4899917;29;20107;-95
2023/01/22 17:02:26;;;;;;;26.98;15.90;;;;;;;0.33;100.00;102310.63;4899895;29;20407;-94
2023/01/22 17:04:52;;;;;;;25.30;15.98;;;;;;;0.09;100.00;102300.09;4899965;29;20365;-95
2023/01/22 17:07:18;;;;;;;25.15;16.00;;;;;;;-0.11;100.00;102292.16;4899817;29;20042;-96
2023/01/22 17:09:44;;;;;;;20.70;14.20;;;;;;;-0.21;100.00;102303.84;4899884;29;20028;-95
2023/01/22 17:12:10;;;;;;;26.00;15.52;;;;;;;-0.33;100.00;102308.72;4899740;29;20543;-94
2023/01/22 17:14:37;;;;;;;22.70;14.75;;;;;;;-0.40;100.00;102312.81;4899741;29;20572;-94
2023/01/22 17:17:05;;;;;;;25.08;15.00;;;;;;;-0.43;100.00;102316.16;4899862;29;20064;-95
2023/01/22 17:19:31;;;;;;;25.90;16.80;;;;;;;-0.40;100.00;102330.56;4899734;29;20040;-96
2023/01/22 17:21:58;;;;;;;30.30;19.17;;;;;;;-0.31;100.00;102338.34;4899710;29;20404;-95
2023/01/22 17:24:24;;;;;;;28.60;18.00;;;;;;;-0.24;100.00;102344.41;4899879;29;20029;-96
2023/01/22 17:26:50;;;;;;;23.98;16.10;;;;;;;-0.45;100.00;102314.41;4899497;29;20543;-95
2023/01/22 17:29:16;;;;;;;32.08;18.75;;;;;;;-0.43;100.00;102321.22;4899442;29;20115;-95
2023/01/22 17:31:42;;;;;;;31.20;16.98;;;;;;;-0.53;100.00;102329.50;4899421;29;20020;-95
2023/01/22 17:34:09;;;;;;;27.08;16.85;;;;;;;-0.65;100.00;102321.66;4899469;29;20039;-95
2023/01/22 17:36:39;;;;;;;40.65;22.33;;;;;;;-0.66;100.00;102323.34;4899259;29;20099;-94
2023/01/22 17:39:05;;;;;;;66.90;32.78;;;;;;;-0.62;100.00;102341.16;4899493;29;20028;-94
2023/01/22 17:41:31;;;;;;;47.97;25.80;;;;;;;-0.65;100.00;102350.41;4899416;29;20475;-95
2023/01/22 17:43:58;;;;;;;34.35;19.83;;;;;;;-0.65;100.00;102358.00;4899202;29;20044;-95
2023/01/22 17:46:29;;;;;;;22.85;13.85;;;;;;;-0.74;100.00;102349.34;4899434;29;20033;-95
2023/01/22 17:48:54;;;;;;;21.60;14.85;;;;;;;-0.89;100.00;102337.22;4899183;29;20103;-94
2023/01/22 17:51:22;;;;;;;20.45;14.20;;;;;;;-0.93;100.00;102343.06;4899298;29;20427;-95
2023/01/22 17:53:50;;;;;;;25.27;15.55;;;;;;;-1.00;100.00;102321.81;4899109;29;20106;-94
2023/01/22 17:56:24;;;;;;;24.67;15.43;;;;;;;-1.06;100.00;102308.16;4899068;29;20041;-94
2023/01/22 17:58:56;;;;;;;24.67;16.55;;;;;;;-0.63;100.00;102358.06;4898958;29;20028;-96
2023/01/22 18:01:24;;;;;;;24.85;15.23;;;;;;;-0.98;100.00;102310.00;4899307;29;20048;-94
2023/01/22 18:03:50;;;;;;;31.67;16.77;;;;;;;-0.94;100.00;102347.28;4900035;29;20040;-94
2023/01/22 18:06:16;;;;;;;27.13;15.73;;;;;;;-1.04;100.00;102332.72;4899311;29;20020;-93
2023/01/22 18:08:42;;;;;;;29.05;15.75;;;;;;;-1.16;100.00;102324.84;4900868;29;20377;-93
2023/01/22 18:11:14;;;;;;;26.38;17.45;;;;;;;-0.82;100.00;102361.03;4900121;29;20088;-94
2023/01/22 18:13:39;;;;;;;32.17;19.38;;;;;;;-1.07;100.00;102325.03;4898882;29;20196;-94
2023/01/22 18:16:08;;;;;;;36.30;19.00;;;;;;;-0.74;100.00;102369.66;4898943;29;20491;-94
2023/01/22 18:18:34;;;;;;;30.65;17.85;;;;;;;-0.91;100.00;102338.88;4900215;29;20487;-95
2023/01/22 18:21:00;;;;;;;28.73;18.33;;;;;;;-0.64;100.00;102366.47;4900098;29;20028;-94
2023/01/22 18:23:25;;;;;;;34.20;20.08;;;;;;;-0.66;100.00;102352.91;4898490;29;20039;-94
2023/01/22 18:25:58;;;;;;;33.65;19.08;;;;;;;-0.44;100.00;102365.19;4898656;29;20373;-94
2023/01/22 18:28:25;;;;;;;37.80;20.75;;;;;;;-0.32;100.00;102374.69;4897941;29;20382;-94
2023/01/22 18:30:52;;;;;;;46.45;24.63;;;;;;;-0.51;100.00;102342.22;4899372;29;20028;-96
2023/01/22 18:33:20;;;;;;;37.38;21.67;;;;;;;-0.54;100.00;102340.44;4898378;29;20036;-96
2023/01/22 18:35:50;;;;;;;30.13;18.17;;;;;;;-0.42;100.00;102347.44;4897926;29;20100;-96
2023/01/22 18:38:19;;;;;;;23.10;15.52;;;;;;;-0.41;100.00;102348.28;4898554;29;20041;-96
2023/01/22 18:40:48;;;;;;;24.38;15.55;;;;;;;-0.23;100.00;102372.31;4897750;29;20084;-95
2023/01/22 18:43:17;;;;;;;26.77;16.50;;;;;;;-0.28;100.00;102358.69;4903368;29;20032;-95
2023/01/22 18:45:43;;;;;;;27.50;15.98;;;;;;;-0.20;100.00;102371.53;4900622;29;20028;-96
2023/01/22 18:48:45;;;;;;;29.58;17.73;;;;;;;-0.19;100.00;102360.56;4898407;29;20047;-96
2023/01/22 18:51:16;;;;;;;;;;;;;;;0.11;100.00;102407.63;4901618;29;20032;-96
2023/01/22 18:53:42;;;;;;;27.27;17.00;;;;;;;-0.03;100.00;102380.28;4886010;29;19927;-95
2023/01/22 18:56:09;;;;;;;30.52;17.40;;;;;;;-0.02;100.00;102374.41;4890587;29;20029;-96
2023/01/22 18:58:36;;;;;;;26.80;17.08;;;;;;;-0.03;100.00;102387.06;4896918;29;20062;-96
2023/01/22 19:01:14;;;;;;;26.73;16.90;;;;;;;0.18;100.00;102417.91;4895489;29;20068;-96
2023/01/22 19:03:41;;;;;;;30.98;18.50;;;;;;;-0.05;100.00;102383.63;4880313;29;20119;-95
2023/01/22 19:06:13;;;;;;;28.73;18.83;;;;;;;0.12;100.00;102414.41;4883443;29;20235;-94
2023/01/22 19:08:46;;;;;;;31.90;19.38;;;;;;;0.18;100.00;102428.06;4886873;29;20025;-95
2023/01/22 19:11:13;;;;;;;30.77;17.90;;;;;;;-0.15;100.00;102387.69;4909561;29;20064;-95
2023/01/22 19:13:40;;;;;;;38.92;21.85;;;;;;;-0.03;100.00;102418.38;4890703;29;20100;-96
2023/01/22 19:16:17;;;;;;;31.90;19.60;;;;;;;0.06;100.00;102427.84;4900544;29;20024;-96
2023/01/22 19:18:47;;;;;;;27.48;16.67;;;;;;;-0.10;100.00;102413.16;4896696;29;20047;-96
2023/01/22 19:21:22;;;;;;;28.70;17.30;;;;;;;-0.09;100.00;102400.50;4904833;29;20063;-95
2023/01/22 19:23:51;;;;;;;39.97;23.20;;;;;;;-0.12;100.00;102403.00;4901485;29;20040;-95
2023/01/22 19:26:22;;;;;;;43.55;23.70;;;;;;;-0.16;100.00;102406.28;4904118;29;20021;-95
2023/01/22 19:28:50;;;;;;;50.30;25.38;;;;;;;-0.14;100.00;102419.88;4899512;29;20030;-96
2023/01/22 19:31:27;;;;;;;43.72;25.33;;;;;;;-0.06;100.00;102428.47;4896003;29;20100;-96
2023/01/22 19:33:54;;;;;;;37.72;21.17;;;;;;;-0.14;100.00;102419.88;4893772;29;20070;-95
2023/01/22 19:36:33;;;;;;;35.05;20.25;;;;;;;-0.04;100.00;102416.66;4885451;29;20025;-95
2023/01/22 20:11:53;;;;;;;27.42;17.20;;;;;;;0.14;100.00;102460.97;4933181;29;20047;-95